sensor_id;sensor_type;location;lat;lon;timestamp;P1;durP1;ratioP1;P2;durP2;ratioP2
6101;SDS011;3081;50.584;7.032;2023-08-01T00:00:53;1.30;;;0.50;;
6101;SDS011;3081;50.584;7.032;2023-08-01T00:03:21;1.50;;;0.40;;
6101;SDS011;3081;50.584;7.032;2023-08-01T00:05:49;1.57;;;0.53;;
6101;SDS011;3081;50.584;7.032;2023-08-01T00:08:16;3.80;;;0.63;;
6101;SDS011;3081;50.584;7.032;2023-08-01T00:10:43;1.30;;;0.50;;
6101;SDS011;3081;50.584;7.032;2023-08-01T00:13:10;1.20;;;0.40;;
6101;SDS011;3081;50.584;7.032;2023-08-01T00:15:37;1.10;;;0.40;;
6101;SDS011;3081;50.584;7.032;2023-08-01T00:18:04;1.10;;;0.40;;
6101;SDS011;3081;50.584;7.032;2023-08-01T00:20:31;1.20;;;0.47;;
6101;SDS011;3081;50.584;7.032;2023-08-01T00:22:59;1.20;;;0.50;;
6101;SDS011;3081;50.584;7.032;2023-08-01T00:25:26;1.30;;;0.40;;
6101;SDS011;3081;50.584;7.032;2023-08-01T00:27:53;1.77;;;0.50;;
6101;SDS011;3081;50.584;7.032;2023-08-01T00:30:20;2.33;;;0.50;;
6101;SDS011;3081;50.584;7.032;2023-08-01T00:32:47;1.20;;;0.53;;
6101;SDS011;3081;50.584;7.032;2023-08-01T00:35:13;1.27;;;0.67;;
6101;SDS011;3081;50.584;7.032;2023-08-01T00:37:41;1.10;;;0.53;;
6101;SDS011;3081;50.584;7.032;2023-08-01T00:40:10;1.60;;;0.50;;
6101;SDS011;3081;50.584;7.032;2023-08-01T00:42:37;1.20;;;0.50;;
6101;SDS011;3081;50.584;7.032;2023-08-01T00:45:05;1.20;;;0.50;;
6101;SDS011;3081;50.584;7.032;2023-08-01T00:47:32;1.30;;;0.60;;
6101;SDS011;3081;50.584;7.032;2023-08-01T00:49:59;1.20;;;0.43;;
6101;SDS011;3081;50.584;7.032;2023-08-01T00:52:27;1.60;;;0.57;;
6101;SDS011;3081;50.584;7.032;2023-08-01T00:54:54;1.30;;;0.50;;
6101;SDS011;3081;50.584;7.032;2023-08-01T00:57:23;1.53;;;0.73;;
6101;SDS011;3081;50.584;7.032;2023-08-01T00:59:50;1.10;;;0.50;;
6101;SDS011;3081;50.584;7.032;2023-08-01T01:02:17;1.23;;;0.50;;
6101;SDS011;3081;50.584;7.032;2023-08-01T01:04:44;3.00;;;0.70;;
6101;SDS011;3081;50.584;7.032;2023-08-01T01:07:11;1.20;;;0.60;;
6101;SDS011;3081;50.584;7.032;2023-08-01T01:09:39;7.20;;;0.77;;
6101;SDS011;3081;50.584;7.032;2023-08-01T01:12:06;1.30;;;0.50;;
6101;SDS011;3081;50.584;7.032;2023-08-01T01:14:34;1.30;;;0.60;;
6101;SDS011;3081;50.584;7.032;2023-08-01T01:17:01;5.43;;;1.13;;
6101;SDS011;3081;50.584;7.032;2023-08-01T01:19:28;1.20;;;0.60;;
6101;SDS011;3081;50.584;7.032;2023-08-01T01:21:56;1.93;;;0.80;;
6101;SDS011;3081;50.584;7.032;2023-08-01T01:24:24;1.47;;;0.50;;
6101;SDS011;3081;50.584;7.032;2023-08-01T01:26:53;1.30;;;0.47;;
6101;SDS011;3081;50.584;7.032;2023-08-01T01:29:21;1.10;;;0.60;;
6101;SDS011;3081;50.584;7.032;2023-08-01T01:31:49;1.30;;;0.50;;
6101;SDS011;3081;50.584;7.032;2023-08-01T01:34:17;1.20;;;0.60;;
6101;SDS011;3081;50.584;7.032;2023-08-01T01:36:44;3.90;;;0.60;;
6101;SDS011;3081;50.584;7.032;2023-08-01T01:39:12;1.10;;;0.50;;
6101;SDS011;3081;50.584;7.032;2023-08-01T01:41:39;1.20;;;0.70;;
6101;SDS011;3081;50.584;7.032;2023-08-01T01:44:06;1.30;;;0.50;;
6101;SDS011;3081;50.584;7.032;2023-08-01T01:46:33;1.20;;;0.53;;
6101;SDS011;3081;50.584;7.032;2023-08-01T01:48:59;1.40;;;0.70;;
6101;SDS011;3081;50.584;7.032;2023-08-01T01:51:27;1.10;;;0.50;;
6101;SDS011;3081;50.584;7.032;2023-08-01T01:53:55;1.73;;;0.50;;
6101;SDS011;3081;50.584;7.032;2023-08-01T01:56:23;2.40;;;0.60;;
6101;SDS011;3081;50.584;7.032;2023-08-01T01:58:50;1.40;;;0.60;;
6101;SDS011;3081;50.584;7.032;2023-08-01T02:01:17;2.23;;;0.60;;
6101;SDS011;3081;50.584;7.032;2023-08-01T02:03:44;1.40;;;0.50;;
6101;SDS011;3081;50.584;7.032;2023-08-01T02:06:11;1.20;;;0.40;;
6101;SDS011;3081;50.584;7.032;2023-08-01T02:08:38;1.10;;;0.50;;
6101;SDS011;3081;50.584;7.032;2023-08-01T02:11:04;3.60;;;0.73;;
6101;SDS011;3081;50.584;7.032;2023-08-01T02:13:33;1.10;;;0.60;;
6101;SDS011;3081;50.584;7.032;2023-08-01T02:16:00;2.33;;;0.50;;
6101;SDS011;3081;50.584;7.032;2023-08-01T02:18:26;1.30;;;0.50;;
6101;SDS011;3081;50.584;7.032;2023-08-01T02:20:53;1.30;;;0.57;;
6101;SDS011;3081;50.584;7.032;2023-08-01T02:23:20;1.10;;;0.60;;
6101;SDS011;3081;50.584;7.032;2023-08-01T02:25:47;1.43;;;0.50;;
6101;SDS011;3081;50.584;7.032;2023-08-01T02:28:14;1.27;;;0.50;;
6101;SDS011;3081;50.584;7.032;2023-08-01T02:30:42;1.10;;;0.50;;
6101;SDS011;3081;50.584;7.032;2023-08-01T02:33:09;2.27;;;0.50;;
6101;SDS011;3081;50.584;7.032;2023-08-01T02:35:37;1.00;;;0.50;;
6101;SDS011;3081;50.584;7.032;2023-08-01T02:38:04;1.83;;;0.50;;
6101;SDS011;3081;50.584;7.032;2023-08-01T02:40:31;1.50;;;0.70;;
6101;SDS011;3081;50.584;7.032;2023-08-01T02:42:58;1.40;;;0.60;;
6101;SDS011;3081;50.584;7.032;2023-08-01T02:45:24;1.10;;;0.40;;
6101;SDS011;3081;50.584;7.032;2023-08-01T02:47:53;1.20;;;0.50;;
6101;SDS011;3081;50.584;7.032;2023-08-01T02:50:20;1.10;;;0.40;;
6101;SDS011;3081;50.584;7.032;2023-08-01T02:52:46;1.10;;;0.40;;
6101;SDS011;3081;50.584;7.032;2023-08-01T02:55:13;1.00;;;0.40;;
6101;SDS011;3081;50.584;7.032;2023-08-01T02:57:40;1.87;;;0.60;;
6101;SDS011;3081;50.584;7.032;2023-08-01T03:00:08;2.30;;;0.60;;
6101;SDS011;3081;50.584;7.032;2023-08-01T03:02:36;1.83;;;0.60;;
6101;SDS011;3081;50.584;7.032;2023-08-01T03:05:07;1.10;;;0.50;;
6101;SDS011;3081;50.584;7.032;2023-08-01T03:07:34;2.10;;;0.63;;
6101;SDS011;3081;50.584;7.032;2023-08-01T03:10:01;1.43;;;1.00;;
6101;SDS011;3081;50.584;7.032;2023-08-01T03:12:29;1.60;;;0.97;;
6101;SDS011;3081;50.584;7.032;2023-08-01T03:14:56;1.80;;;1.10;;
6101;SDS011;3081;50.584;7.032;2023-08-01T03:17:23;1.50;;;1.03;;
6101;SDS011;3081;50.584;7.032;2023-08-01T03:19:50;3.30;;;1.50;;
6101;SDS011;3081;50.584;7.032;2023-08-01T03:22:18;3.00;;;1.63;;
6101;SDS011;3081;50.584;7.032;2023-08-01T03:24:45;3.03;;;2.00;;
6101;SDS011;3081;50.584;7.032;2023-08-01T03:27:12;5.40;;;1.43;;
6101;SDS011;3081;50.584;7.032;2023-08-01T03:29:38;1.83;;;0.97;;
6101;SDS011;3081;50.584;7.032;2023-08-01T03:32:06;1.53;;;0.80;;
6101;SDS011;3081;50.584;7.032;2023-08-01T03:34:33;1.70;;;0.93;;
6101;SDS011;3081;50.584;7.032;2023-08-01T03:37:00;1.90;;;0.90;;
6101;SDS011;3081;50.584;7.032;2023-08-01T03:39:28;2.40;;;0.73;;
6101;SDS011;3081;50.584;7.032;2023-08-01T03:41:55;2.00;;;1.10;;
6101;SDS011;3081;50.584;7.032;2023-08-01T03:44:22;1.30;;;0.80;;
6101;SDS011;3081;50.584;7.032;2023-08-01T03:46:49;4.10;;;0.97;;
6101;SDS011;3081;50.584;7.032;2023-08-01T03:49:16;5.93;;;1.50;;
6101;SDS011;3081;50.584;7.032;2023-08-01T03:51:43;1.90;;;1.27;;
6101;SDS011;3081;50.584;7.032;2023-08-01T03:54:10;3.43;;;0.80;;
6101;SDS011;3081;50.584;7.032;2023-08-01T03:56:38;2.30;;;1.23;;
6101;SDS011;3081;50.584;7.032;2023-08-01T03:59:08;2.57;;;0.90;;
6101;SDS011;3081;50.584;7.032;2023-08-01T04:01:35;3.40;;;1.00;;
6101;SDS011;3081;50.584;7.032;2023-08-01T04:04:02;1.73;;;0.93;;
6101;SDS011;3081;50.584;7.032;2023-08-01T04:06:29;3.20;;;0.90;;
6101;SDS011;3081;50.584;7.032;2023-08-01T04:08:55;1.70;;;0.70;;
6101;SDS011;3081;50.584;7.032;2023-08-01T04:11:25;1.30;;;0.60;;
6101;SDS011;3081;50.584;7.032;2023-08-01T04:13:53;3.20;;;1.10;;
6101;SDS011;3081;50.584;7.032;2023-08-01T04:16:20;3.20;;;0.97;;
6101;SDS011;3081;50.584;7.032;2023-08-01T04:18:47;1.60;;;0.90;;
6101;SDS011;3081;50.584;7.032;2023-08-01T04:21:14;2.80;;;0.80;;
6101;SDS011;3081;50.584;7.032;2023-08-01T04:23:42;3.10;;;1.20;;
6101;SDS011;3081;50.584;7.032;2023-08-01T04:26:08;3.70;;;1.47;;
6101;SDS011;3081;50.584;7.032;2023-08-01T04:28:35;4.03;;;1.53;;
6101;SDS011;3081;50.584;7.032;2023-08-01T04:31:04;2.50;;;0.70;;
6101;SDS011;3081;50.584;7.032;2023-08-01T04:33:31;2.80;;;0.97;;
6101;SDS011;3081;50.584;7.032;2023-08-01T04:35:57;3.93;;;1.40;;
6101;SDS011;3081;50.584;7.032;2023-08-01T04:38:24;4.93;;;1.40;;
6101;SDS011;3081;50.584;7.032;2023-08-01T04:40:51;2.17;;;1.30;;
6101;SDS011;3081;50.584;7.032;2023-08-01T04:43:18;2.83;;;1.50;;
6101;SDS011;3081;50.584;7.032;2023-08-01T04:45:45;3.20;;;1.30;;
6101;SDS011;3081;50.584;7.032;2023-08-01T04:48:13;2.30;;;1.40;;
6101;SDS011;3081;50.584;7.032;2023-08-01T04:50:40;3.00;;;1.20;;
6101;SDS011;3081;50.584;7.032;2023-08-01T04:53:07;2.83;;;1.40;;
6101;SDS011;3081;50.584;7.032;2023-08-01T04:55:34;2.70;;;1.50;;
6101;SDS011;3081;50.584;7.032;2023-08-01T04:58:01;2.73;;;1.73;;
6101;SDS011;3081;50.584;7.032;2023-08-01T05:00:28;3.63;;;1.80;;
6101;SDS011;3081;50.584;7.032;2023-08-01T05:02:55;2.47;;;1.67;;
6101;SDS011;3081;50.584;7.032;2023-08-01T05:05:23;3.60;;;1.90;;
6101;SDS011;3081;50.584;7.032;2023-08-01T05:07:50;2.70;;;1.90;;
6101;SDS011;3081;50.584;7.032;2023-08-01T05:10:17;2.87;;;1.93;;
6101;SDS011;3081;50.584;7.032;2023-08-01T05:12:43;3.17;;;2.30;;
6101;SDS011;3081;50.584;7.032;2023-08-01T05:15:10;4.17;;;2.60;;
6101;SDS011;3081;50.584;7.032;2023-08-01T05:17:38;5.20;;;1.70;;
6101;SDS011;3081;50.584;7.032;2023-08-01T05:20:05;8.33;;;2.30;;
6101;SDS011;3081;50.584;7.032;2023-08-01T05:22:34;3.13;;;1.60;;
6101;SDS011;3081;50.584;7.032;2023-08-01T05:25:01;3.40;;;1.70;;
6101;SDS011;3081;50.584;7.032;2023-08-01T05:27:30;5.50;;;2.13;;
6101;SDS011;3081;50.584;7.032;2023-08-01T05:29:57;7.63;;;1.70;;
6101;SDS011;3081;50.584;7.032;2023-08-01T05:32:23;5.77;;;2.63;;
6101;SDS011;3081;50.584;7.032;2023-08-01T05:34:50;7.60;;;2.07;;
6101;SDS011;3081;50.584;7.032;2023-08-01T05:37:17;4.83;;;2.43;;
6101;SDS011;3081;50.584;7.032;2023-08-01T05:39:45;3.83;;;2.07;;
6101;SDS011;3081;50.584;7.032;2023-08-01T05:42:12;3.57;;;2.20;;
6101;SDS011;3081;50.584;7.032;2023-08-01T05:44:39;5.80;;;2.20;;
6101;SDS011;3081;50.584;7.032;2023-08-01T05:47:06;5.07;;;2.33;;
6101;SDS011;3081;50.584;7.032;2023-08-01T05:49:33;6.97;;;2.13;;
6101;SDS011;3081;50.584;7.032;2023-08-01T05:52:00;5.53;;;1.90;;
6101;SDS011;3081;50.584;7.032;2023-08-01T05:54:27;3.57;;;1.90;;
6101;SDS011;3081;50.584;7.032;2023-08-01T05:56:55;3.33;;;2.00;;
6101;SDS011;3081;50.584;7.032;2023-08-01T05:59:22;7.47;;;2.50;;
6101;SDS011;3081;50.584;7.032;2023-08-01T06:01:49;6.90;;;2.60;;
6101;SDS011;3081;50.584;7.032;2023-08-01T06:04:16;5.33;;;2.17;;
6101;SDS011;3081;50.584;7.032;2023-08-01T06:06:43;4.30;;;2.67;;
6101;SDS011;3081;50.584;7.032;2023-08-01T06:09:10;6.47;;;2.47;;
6101;SDS011;3081;50.584;7.032;2023-08-01T06:11:36;4.47;;;2.60;;
6101;SDS011;3081;50.584;7.032;2023-08-01T06:14:05;6.23;;;2.57;;
6101;SDS011;3081;50.584;7.032;2023-08-01T06:16:32;6.87;;;1.97;;
6101;SDS011;3081;50.584;7.032;2023-08-01T06:18:58;4.33;;;2.00;;
6101;SDS011;3081;50.584;7.032;2023-08-01T06:21:25;4.37;;;1.63;;
6101;SDS011;3081;50.584;7.032;2023-08-01T06:23:52;4.10;;;2.10;;
6101;SDS011;3081;50.584;7.032;2023-08-01T06:26:19;4.13;;;2.13;;
6101;SDS011;3081;50.584;7.032;2023-08-01T06:28:46;4.47;;;2.30;;
6101;SDS011;3081;50.584;7.032;2023-08-01T06:31:14;6.67;;;2.10;;
6101;SDS011;3081;50.584;7.032;2023-08-01T06:33:41;4.40;;;2.07;;
6101;SDS011;3081;50.584;7.032;2023-08-01T06:36:08;3.17;;;1.63;;
6101;SDS011;3081;50.584;7.032;2023-08-01T06:38:35;5.00;;;1.43;;
6101;SDS011;3081;50.584;7.032;2023-08-01T06:41:02;4.73;;;2.33;;
6101;SDS011;3081;50.584;7.032;2023-08-01T06:43:29;4.33;;;2.40;;
6101;SDS011;3081;50.584;7.032;2023-08-01T06:45:56;6.80;;;2.50;;
6101;SDS011;3081;50.584;7.032;2023-08-01T06:48:24;5.73;;;1.93;;
6101;SDS011;3081;50.584;7.032;2023-08-01T06:50:51;8.03;;;3.57;;
6101;SDS011;3081;50.584;7.032;2023-08-01T06:53:18;5.23;;;2.30;;
6101;SDS011;3081;50.584;7.032;2023-08-01T06:55:46;6.97;;;2.50;;
6101;SDS011;3081;50.584;7.032;2023-08-01T06:58:13;5.20;;;1.90;;
6101;SDS011;3081;50.584;7.032;2023-08-01T07:00:40;4.03;;;1.43;;
6101;SDS011;3081;50.584;7.032;2023-08-01T07:03:07;7.70;;;2.10;;
6101;SDS011;3081;50.584;7.032;2023-08-01T07:05:35;4.60;;;1.23;;
6101;SDS011;3081;50.584;7.032;2023-08-01T07:08:03;7.73;;;2.57;;
6101;SDS011;3081;50.584;7.032;2023-08-01T07:10:30;6.10;;;2.60;;
6101;SDS011;3081;50.584;7.032;2023-08-01T07:13:00;5.40;;;2.00;;
6101;SDS011;3081;50.584;7.032;2023-08-01T07:15:29;5.30;;;1.90;;
6101;SDS011;3081;50.584;7.032;2023-08-01T07:17:56;5.60;;;2.20;;
6101;SDS011;3081;50.584;7.032;2023-08-01T07:20:23;6.47;;;2.20;;
6101;SDS011;3081;50.584;7.032;2023-08-01T07:22:51;6.97;;;2.27;;
6101;SDS011;3081;50.584;7.032;2023-08-01T07:25:18;7.37;;;2.63;;
6101;SDS011;3081;50.584;7.032;2023-08-01T07:27:45;6.30;;;2.10;;
6101;SDS011;3081;50.584;7.032;2023-08-01T07:30:12;5.50;;;2.10;;
6101;SDS011;3081;50.584;7.032;2023-08-01T07:32:39;7.00;;;3.03;;
6101;SDS011;3081;50.584;7.032;2023-08-01T07:35:08;5.93;;;2.33;;
6101;SDS011;3081;50.584;7.032;2023-08-01T07:37:36;7.10;;;2.83;;
6101;SDS011;3081;50.584;7.032;2023-08-01T07:40:05;6.60;;;2.13;;
6101;SDS011;3081;50.584;7.032;2023-08-01T07:42:33;6.13;;;2.17;;
6101;SDS011;3081;50.584;7.032;2023-08-01T07:45:00;9.00;;;1.60;;
6101;SDS011;3081;50.584;7.032;2023-08-01T07:47:27;5.87;;;2.63;;
6101;SDS011;3081;50.584;7.032;2023-08-01T07:49:54;5.30;;;2.20;;
6101;SDS011;3081;50.584;7.032;2023-08-01T07:52:20;8.70;;;2.13;;
6101;SDS011;3081;50.584;7.032;2023-08-01T07:54:47;7.80;;;2.43;;
6101;SDS011;3081;50.584;7.032;2023-08-01T07:57:16;4.93;;;1.97;;
6101;SDS011;3081;50.584;7.032;2023-08-01T07:59:42;6.40;;;2.00;;
6101;SDS011;3081;50.584;7.032;2023-08-01T08:02:09;5.60;;;1.90;;
6101;SDS011;3081;50.584;7.032;2023-08-01T08:04:36;6.03;;;1.97;;
6101;SDS011;3081;50.584;7.032;2023-08-01T08:07:03;6.77;;;1.67;;
6101;SDS011;3081;50.584;7.032;2023-08-01T08:09:31;6.20;;;1.80;;
6101;SDS011;3081;50.584;7.032;2023-08-01T08:11:58;5.17;;;1.83;;
6101;SDS011;3081;50.584;7.032;2023-08-01T08:14:26;4.73;;;1.40;;
6101;SDS011;3081;50.584;7.032;2023-08-01T08:16:53;4.43;;;1.30;;
6101;SDS011;3081;50.584;7.032;2023-08-01T08:19:20;5.60;;;1.93;;
6101;SDS011;3081;50.584;7.032;2023-08-01T08:21:49;6.53;;;2.00;;
6101;SDS011;3081;50.584;7.032;2023-08-01T08:24:16;6.50;;;1.80;;
6101;SDS011;3081;50.584;7.032;2023-08-01T08:26:42;4.57;;;1.40;;
6101;SDS011;3081;50.584;7.032;2023-08-01T08:29:10;5.40;;;1.77;;
6101;SDS011;3081;50.584;7.032;2023-08-01T08:31:39;5.57;;;1.77;;
6101;SDS011;3081;50.584;7.032;2023-08-01T08:34:05;5.60;;;1.70;;
6101;SDS011;3081;50.584;7.032;2023-08-01T08:36:32;6.33;;;2.77;;
6101;SDS011;3081;50.584;7.032;2023-08-01T08:38:59;8.17;;;2.47;;
6101;SDS011;3081;50.584;7.032;2023-08-01T08:41:28;5.57;;;1.73;;
6101;SDS011;3081;50.584;7.032;2023-08-01T08:44:01;9.87;;;1.60;;
6101;SDS011;3081;50.584;7.032;2023-08-01T08:46:32;6.53;;;1.90;;
6101;SDS011;3081;50.584;7.032;2023-08-01T08:49:08;5.43;;;1.60;;
6101;SDS011;3081;50.584;7.032;2023-08-01T08:51:35;7.63;;;2.30;;
6101;SDS011;3081;50.584;7.032;2023-08-01T08:54:03;6.37;;;2.00;;
6101;SDS011;3081;50.584;7.032;2023-08-01T08:56:31;5.60;;;1.63;;
6101;SDS011;3081;50.584;7.032;2023-08-01T08:59:00;5.97;;;1.90;;
6101;SDS011;3081;50.584;7.032;2023-08-01T09:01:28;6.97;;;2.20;;
6101;SDS011;3081;50.584;7.032;2023-08-01T09:03:56;7.90;;;1.37;;
6101;SDS011;3081;50.584;7.032;2023-08-01T09:06:27;5.90;;;1.70;;
6101;SDS011;3081;50.584;7.032;2023-08-01T09:08:58;7.40;;;1.33;;
6101;SDS011;3081;50.584;7.032;2023-08-01T09:11:31;6.20;;;1.70;;
6101;SDS011;3081;50.584;7.032;2023-08-01T09:14:05;5.43;;;1.23;;
6101;SDS011;3081;50.584;7.032;2023-08-01T09:16:32;6.37;;;1.87;;
6101;SDS011;3081;50.584;7.032;2023-08-01T09:19:00;6.60;;;1.77;;
6101;SDS011;3081;50.584;7.032;2023-08-01T09:21:30;8.00;;;1.83;;
6101;SDS011;3081;50.584;7.032;2023-08-01T09:23:59;9.07;;;1.93;;
6101;SDS011;3081;50.584;7.032;2023-08-01T09:26:34;7.50;;;1.70;;
6101;SDS011;3081;50.584;7.032;2023-08-01T09:29:01;10.13;;;1.87;;
6101;SDS011;3081;50.584;7.032;2023-08-01T09:31:28;7.60;;;1.60;;
6101;SDS011;3081;50.584;7.032;2023-08-01T09:33:56;9.20;;;2.03;;
6101;SDS011;3081;50.584;7.032;2023-08-01T09:36:23;9.40;;;1.23;;
6101;SDS011;3081;50.584;7.032;2023-08-01T09:38:57;6.77;;;1.27;;
6101;SDS011;3081;50.584;7.032;2023-08-01T09:41:24;7.37;;;1.60;;
6101;SDS011;3081;50.584;7.032;2023-08-01T09:43:52;7.83;;;1.77;;
6101;SDS011;3081;50.584;7.032;2023-08-01T09:46:18;8.43;;;1.70;;
6101;SDS011;3081;50.584;7.032;2023-08-01T09:48:45;8.53;;;1.33;;
6101;SDS011;3081;50.584;7.032;2023-08-01T09:51:13;7.60;;;1.67;;
6101;SDS011;3081;50.584;7.032;2023-08-01T09:53:47;8.80;;;1.47;;
6101;SDS011;3081;50.584;7.032;2023-08-01T09:56:17;7.20;;;1.40;;
6101;SDS011;3081;50.584;7.032;2023-08-01T09:58:47;9.00;;;1.77;;
6101;SDS011;3081;50.584;7.032;2023-08-01T10:01:14;8.50;;;1.57;;
6101;SDS011;3081;50.584;7.032;2023-08-01T10:03:44;8.90;;;2.07;;
6101;SDS011;3081;50.584;7.032;2023-08-01T10:06:13;8.50;;;1.60;;
6101;SDS011;3081;50.584;7.032;2023-08-01T10:08:44;7.20;;;1.50;;
6101;SDS011;3081;50.584;7.032;2023-08-01T10:11:14;6.87;;;1.60;;
6101;SDS011;3081;50.584;7.032;2023-08-01T10:13:44;10.97;;;2.37;;
6101;SDS011;3081;50.584;7.032;2023-08-01T10:16:11;6.93;;;2.00;;
6101;SDS011;3081;50.584;7.032;2023-08-01T10:18:39;6.00;;;1.70;;
6101;SDS011;3081;50.584;7.032;2023-08-01T10:21:07;5.30;;;1.43;;
6101;SDS011;3081;50.584;7.032;2023-08-01T10:23:35;5.67;;;1.80;;
6101;SDS011;3081;50.584;7.032;2023-08-01T10:26:04;6.20;;;1.20;;
6101;SDS011;3081;50.584;7.032;2023-08-01T10:28:34;7.00;;;1.20;;
6101;SDS011;3081;50.584;7.032;2023-08-01T10:31:10;8.20;;;1.33;;
6101;SDS011;3081;50.584;7.032;2023-08-01T10:33:38;6.37;;;0.97;;
6101;SDS011;3081;50.584;7.032;2023-08-01T10:36:14;7.13;;;1.00;;
6101;SDS011;3081;50.584;7.032;2023-08-01T10:38:48;7.37;;;1.53;;
6101;SDS011;3081;50.584;7.032;2023-08-01T10:41:20;7.70;;;1.60;;
6101;SDS011;3081;50.584;7.032;2023-08-01T10:43:48;7.17;;;1.27;;
6101;SDS011;3081;50.584;7.032;2023-08-01T10:46:16;6.87;;;1.17;;
6101;SDS011;3081;50.584;7.032;2023-08-01T10:48:50;6.43;;;1.07;;
6101;SDS011;3081;50.584;7.032;2023-08-01T10:51:18;7.93;;;1.07;;
6101;SDS011;3081;50.584;7.032;2023-08-01T10:53:45;6.70;;;1.23;;
6101;SDS011;3081;50.584;7.032;2023-08-01T10:56:16;7.13;;;1.13;;
6101;SDS011;3081;50.584;7.032;2023-08-01T10:58:44;9.03;;;1.60;;
6101;SDS011;3081;50.584;7.032;2023-08-01T11:01:12;7.73;;;1.60;;
6101;SDS011;3081;50.584;7.032;2023-08-01T11:03:40;7.10;;;1.40;;
6101;SDS011;3081;50.584;7.032;2023-08-01T11:06:07;8.10;;;1.80;;
6101;SDS011;3081;50.584;7.032;2023-08-01T11:08:35;7.70;;;1.33;;
6101;SDS011;3081;50.584;7.032;2023-08-01T11:11:03;8.10;;;1.57;;
6101;SDS011;3081;50.584;7.032;2023-08-01T11:13:31;9.03;;;1.33;;
6101;SDS011;3081;50.584;7.032;2023-08-01T11:16:00;9.63;;;1.70;;
6101;SDS011;3081;50.584;7.032;2023-08-01T11:18:28;7.40;;;1.50;;
6101;SDS011;3081;50.584;7.032;2023-08-01T11:20:57;9.07;;;1.10;;
6101;SDS011;3081;50.584;7.032;2023-08-01T11:23:27;9.33;;;1.80;;
6101;SDS011;3081;50.584;7.032;2023-08-01T11:25:55;8.23;;;1.77;;
6101;SDS011;3081;50.584;7.032;2023-08-01T11:28:22;7.00;;;1.10;;
6101;SDS011;3081;50.584;7.032;2023-08-01T11:30:49;7.13;;;1.20;;
6101;SDS011;3081;50.584;7.032;2023-08-01T11:33:17;8.30;;;1.70;;
6101;SDS011;3081;50.584;7.032;2023-08-01T11:35:46;8.10;;;1.43;;
6101;SDS011;3081;50.584;7.032;2023-08-01T11:38:17;8.20;;;1.50;;
6101;SDS011;3081;50.584;7.032;2023-08-01T11:40:44;7.60;;;1.50;;
6101;SDS011;3081;50.584;7.032;2023-08-01T11:43:14;7.43;;;1.20;;
6101;SDS011;3081;50.584;7.032;2023-08-01T11:45:50;7.10;;;1.00;;
6101;SDS011;3081;50.584;7.032;2023-08-01T11:48:19;9.50;;;1.30;;
6101;SDS011;3081;50.584;7.032;2023-08-01T11:50:48;6.90;;;1.30;;
6101;SDS011;3081;50.584;7.032;2023-08-01T11:53:20;7.43;;;1.50;;
6101;SDS011;3081;50.584;7.032;2023-08-01T11:55:47;7.20;;;1.60;;
6101;SDS011;3081;50.584;7.032;2023-08-01T11:58:14;7.53;;;1.17;;
6101;SDS011;3081;50.584;7.032;2023-08-01T12:00:41;6.40;;;1.10;;
6101;SDS011;3081;50.584;7.032;2023-08-01T12:03:08;9.50;;;2.10;;
6101;SDS011;3081;50.584;7.032;2023-08-01T12:05:38;7.43;;;2.00;;
6101;SDS011;3081;50.584;7.032;2023-08-01T12:08:10;6.33;;;2.07;;
6101;SDS011;3081;50.584;7.032;2023-08-01T12:10:39;7.07;;;1.87;;
6101;SDS011;3081;50.584;7.032;2023-08-01T12:13:18;7.03;;;1.27;;
6101;SDS011;3081;50.584;7.032;2023-08-01T12:15:46;7.30;;;1.17;;
6101;SDS011;3081;50.584;7.032;2023-08-01T12:18:19;8.80;;;1.00;;
6101;SDS011;3081;50.584;7.032;2023-08-01T12:20:46;9.20;;;1.33;;
6101;SDS011;3081;50.584;7.032;2023-08-01T12:23:13;7.23;;;1.10;;
6101;SDS011;3081;50.584;7.032;2023-08-01T12:25:41;9.10;;;1.30;;
6101;SDS011;3081;50.584;7.032;2023-08-01T12:28:08;7.33;;;0.90;;
6101;SDS011;3081;50.584;7.032;2023-08-01T12:30:35;7.67;;;1.00;;
6101;SDS011;3081;50.584;7.032;2023-08-01T12:33:05;7.10;;;0.80;;
6101;SDS011;3081;50.584;7.032;2023-08-01T12:35:32;9.17;;;0.80;;
6101;SDS011;3081;50.584;7.032;2023-08-01T12:38:02;8.90;;;1.00;;
6101;SDS011;3081;50.584;7.032;2023-08-01T12:40:29;8.10;;;1.23;;
6101;SDS011;3081;50.584;7.032;2023-08-01T12:42:57;7.40;;;1.27;;
6101;SDS011;3081;50.584;7.032;2023-08-01T12:45:25;13.30;;;1.20;;
6101;SDS011;3081;50.584;7.032;2023-08-01T12:47:52;6.77;;;0.70;;
6101;SDS011;3081;50.584;7.032;2023-08-01T12:50:18;9.87;;;1.63;;
6101;SDS011;3081;50.584;7.032;2023-08-01T12:52:45;6.90;;;0.80;;
6101;SDS011;3081;50.584;7.032;2023-08-01T12:55:12;6.67;;;1.00;;
6101;SDS011;3081;50.584;7.032;2023-08-01T12:57:39;8.30;;;1.10;;
6101;SDS011;3081;50.584;7.032;2023-08-01T13:00:08;5.87;;;0.90;;
6101;SDS011;3081;50.584;7.032;2023-08-01T13:02:35;5.93;;;1.00;;
6101;SDS011;3081;50.584;7.032;2023-08-01T13:05:03;8.50;;;1.20;;
6101;SDS011;3081;50.584;7.032;2023-08-01T13:07:30;5.83;;;1.53;;
6101;SDS011;3081;50.584;7.032;2023-08-01T13:09:57;3.90;;;0.67;;
6101;SDS011;3081;50.584;7.032;2023-08-01T13:12:24;4.40;;;0.87;;
6101;SDS011;3081;50.584;7.032;2023-08-01T13:14:51;4.17;;;0.70;;
6101;SDS011;3081;50.584;7.032;2023-08-01T13:17:19;5.13;;;1.10;;
6101;SDS011;3081;50.584;7.032;2023-08-01T13:19:46;5.30;;;0.80;;
6101;SDS011;3081;50.584;7.032;2023-08-01T13:22:13;7.00;;;0.90;;
6101;SDS011;3081;50.584;7.032;2023-08-01T13:24:40;11.73;;;0.80;;
6101;SDS011;3081;50.584;7.032;2023-08-01T13:27:07;8.07;;;0.90;;
6101;SDS011;3081;50.584;7.032;2023-08-01T13:29:34;7.10;;;1.07;;
6101;SDS011;3081;50.584;7.032;2023-08-01T13:32:02;7.53;;;0.90;;
6101;SDS011;3081;50.584;7.032;2023-08-01T13:34:30;6.80;;;0.80;;
6101;SDS011;3081;50.584;7.032;2023-08-01T13:36:57;7.43;;;0.83;;
6101;SDS011;3081;50.584;7.032;2023-08-01T13:39:24;7.57;;;1.07;;
6101;SDS011;3081;50.584;7.032;2023-08-01T13:41:51;6.90;;;0.77;;
6101;SDS011;3081;50.584;7.032;2023-08-01T13:44:18;7.87;;;0.70;;
6101;SDS011;3081;50.584;7.032;2023-08-01T13:46:45;7.03;;;0.90;;
6101;SDS011;3081;50.584;7.032;2023-08-01T13:49:12;7.70;;;0.73;;
6101;SDS011;3081;50.584;7.032;2023-08-01T13:51:40;7.67;;;0.80;;
6101;SDS011;3081;50.584;7.032;2023-08-01T13:54:07;8.53;;;0.87;;
6101;SDS011;3081;50.584;7.032;2023-08-01T13:56:34;7.40;;;0.80;;
6101;SDS011;3081;50.584;7.032;2023-08-01T13:59:01;8.33;;;1.20;;
6101;SDS011;3081;50.584;7.032;2023-08-01T14:01:28;8.77;;;0.80;;
6101;SDS011;3081;50.584;7.032;2023-08-01T14:03:55;7.83;;;1.10;;
6101;SDS011;3081;50.584;7.032;2023-08-01T14:06:22;8.93;;;1.33;;
6101;SDS011;3081;50.584;7.032;2023-08-01T14:08:50;7.57;;;1.17;;
6101;SDS011;3081;50.584;7.032;2023-08-01T14:11:17;8.50;;;1.03;;
6101;SDS011;3081;50.584;7.032;2023-08-01T14:13:45;11.03;;;1.33;;
6101;SDS011;3081;50.584;7.032;2023-08-01T14:16:12;9.17;;;1.80;;
6101;SDS011;3081;50.584;7.032;2023-08-01T14:18:39;8.57;;;1.00;;
6101;SDS011;3081;50.584;7.032;2023-08-01T14:21:07;7.23;;;1.03;;
6101;SDS011;3081;50.584;7.032;2023-08-01T14:23:34;6.90;;;0.80;;
6101;SDS011;3081;50.584;7.032;2023-08-01T14:26:04;6.77;;;0.80;;
6101;SDS011;3081;50.584;7.032;2023-08-01T14:28:30;7.07;;;0.80;;
6101;SDS011;3081;50.584;7.032;2023-08-01T14:30:59;6.23;;;0.87;;
6101;SDS011;3081;50.584;7.032;2023-08-01T14:33:27;8.87;;;0.90;;
6101;SDS011;3081;50.584;7.032;2023-08-01T14:35:54;6.30;;;0.80;;
6101;SDS011;3081;50.584;7.032;2023-08-01T14:38:21;7.00;;;0.67;;
6101;SDS011;3081;50.584;7.032;2023-08-01T14:40:48;5.67;;;0.67;;
6101;SDS011;3081;50.584;7.032;2023-08-01T14:43:16;6.73;;;1.07;;
6101;SDS011;3081;50.584;7.032;2023-08-01T14:45:43;6.90;;;1.20;;
6101;SDS011;3081;50.584;7.032;2023-08-01T14:48:10;7.20;;;1.17;;
6101;SDS011;3081;50.584;7.032;2023-08-01T14:50:37;6.80;;;0.93;;
6101;SDS011;3081;50.584;7.032;2023-08-01T14:53:04;7.00;;;0.80;;
6101;SDS011;3081;50.584;7.032;2023-08-01T14:55:33;8.60;;;1.40;;
6101;SDS011;3081;50.584;7.032;2023-08-01T14:58:00;8.93;;;1.20;;
6101;SDS011;3081;50.584;7.032;2023-08-01T15:00:28;8.00;;;1.30;;
6101;SDS011;3081;50.584;7.032;2023-08-01T15:02:55;6.10;;;0.80;;
6101;SDS011;3081;50.584;7.032;2023-08-01T15:05:24;5.40;;;0.70;;
6101;SDS011;3081;50.584;7.032;2023-08-01T15:07:51;5.13;;;0.80;;
6101;SDS011;3081;50.584;7.032;2023-08-01T15:10:18;4.60;;;0.77;;
6101;SDS011;3081;50.584;7.032;2023-08-01T15:12:44;6.33;;;0.87;;
6101;SDS011;3081;50.584;7.032;2023-08-01T15:15:11;5.00;;;0.70;;
6101;SDS011;3081;50.584;7.032;2023-08-01T15:17:40;5.70;;;1.47;;